KFLL/FLL METAR and TAF weather

Enter ICAO airport designator
Station Type Date Time Source
KFLL METAR 2020/08/14 15:53 UTC NOAA

KFLL 141553Z 14008KT 10SM FEW028 BKN250 31/23 A3002 RMK AO2 SLP164 T03060228


Station Type Date Time Source
KFLL Decoded METAR 2020/08/14 15:53 UTC NOAA

FORT LAUDERDALE/HOLLYWOOD, FL, United States (KFLL) 26-04N 080-09W 30M
Aug 14, 2020 - 11:53 AM EDT / 2020.08.14 1553 UTC
Wind: from the SE (140 degrees) at 9 MPH (8 KT):0
Visibility: 10 mile(s):0
Sky conditions: mostly cloudy
Temperature: 87.1 F (30.6 C)
Heat index: 94.5 F (34.7 C):1
Dew Point: 73.0 F (22.8 C)
Relative Humidity: 63%
Pressure (altimeter): 30.02 in. Hg (1016 hPa)
ob: KFLL 141553Z 14008KT 10SM FEW028 BKN250 31/23 A3002 RMK AO2 SLP164 T03060228
cycle: 16

Station Type Date Time Source
KFLL TAF 2020/08/14 15:09 UTC NOAA

TAF
AMD KFLL 141500Z 1415/1518 13007KT P6SM FEW025 SCT250
FM141600 12010KT P6SM FEW030 SCT250
FM150300 VRB04KT P6SM FEW020 FEW250

Example: see airport list